Time;durP1;ratioP1;P1;durP2;ratioP2;P2;SDS_P1;SDS_P2;PMS_P1;PMS_P2;Temp;Humidity;BMP_temperature;BMP_pressure;BME280_temperature;BME280_humidity;BME280_pressure;Samples;Min_cycle;Max_cycle;Signal;HPM_P1;HPM_P2
2022/03/30 00:01:00;;;;;;;;;60.00;48.25;;;;;;;;5126648;27;48326;-79
2022/03/30 00:03:26;;;;;;;;;63.75;49.25;;;;;;;;5127348;27;45295;-80
2022/03/30 00:05:51;;;;;;;;;61.00;48.75;;;;;;;;5126935;27;45376;-79
2022/03/30 00:08:16;;;;;;;;;63.25;52.00;;;;;;;;5129187;27;45470;-80
2022/03/30 00:10:41;;;;;;;;;64.25;48.50;;;;;;;;5136958;27;45447;-80
2022/03/30 00:13:08;;;;;;;;;61.25;50.25;;;;;;;;5128219;27;45347;-80
2022/03/30 00:15:33;;;;;;;;;61.00;49.50;;;;;;;;5118561;27;45487;-79
2022/03/30 00:17:58;;;;;;;;;65.25;50.25;;;;;;;;5105927;27;46015;-80
2022/03/30 00:20:23;;;;;;;;;62.25;49.00;;;;;;;;5109032;27;46657;-80
2022/03/30 00:22:49;;;;;;;;;58.75;47.75;;;;;;;;5105833;27;45344;-80
2022/03/30 00:25:14;;;;;;;;;60.75;48.50;;;;;;;;5108620;27;45432;-80
2022/03/30 00:27:46;;;;;;;;;60.50;50.25;;;;;;;;5107561;27;45294;-80
2022/03/30 00:30:11;;;;;;;;;63.75;49.75;;;;;;;;5107293;27;45329;-80
2022/03/30 00:32:37;;;;;;;;;61.00;49.75;;;;;;;;5107443;27;45352;-80
2022/03/30 00:35:03;;;;;;;;;59.00;48.25;;;;;;;;5108361;27;45269;-80
2022/03/30 00:37:28;;;;;;;;;65.00;50.75;;;;;;;;5111741;27;46246;-80
2022/03/30 00:39:53;;;;;;;;;60.50;48.50;;;;;;;;5115514;27;45444;-80
2022/03/30 00:42:22;;;;;;;;;63.50;50.50;;;;;;;;5109807;27;45379;-80
2022/03/30 00:44:48;;;;;;;;;69.50;57.00;;;;;;;;5115594;27;45328;-80
2022/03/30 00:47:25;;;;;;;;;61.25;50.00;;;;;;;;5112809;27;46603;-80
2022/03/30 00:49:51;;;;;;;;;62.25;49.25;;;;;;;;5112731;27;45333;-79
2022/03/30 00:52:17;;;;;;;;;62.75;51.00;;;;;;;;5110600;27;45383;-80
2022/03/30 00:54:43;;;;;;;;;64.00;50.50;;;;;;;;5111948;27;45368;-80
2022/03/30 00:57:10;;;;;;;;;59.25;47.75;;;;;;;;5110749;27;45316;-80
2022/03/30 00:59:36;;;;;;;;;61.00;47.50;;;;;;;;5112423;27;45365;-80
2022/03/30 01:02:01;;;;;;;;;61.00;48.25;;;;;;;;5112918;27;45404;-79
2022/03/30 01:04:27;;;;;;;;;63.50;50.75;;;;;;;;5110471;27;45341;-79
2022/03/30 01:06:52;;;;;;;;;67.50;53.75;;;;;;;;5110663;27;45982;-80
2022/03/30 01:09:18;;;;;;;;;61.25;50.00;;;;;;;;5108218;27;47480;-80
2022/03/30 01:11:43;;;;;;;;;59.25;47.00;;;;;;;;5109782;27;45235;-80
2022/03/30 01:14:09;;;;;;;;;62.50;50.00;;;;;;;;5111479;27;45372;-80
2022/03/30 01:16:34;;;;;;;;;62.25;49.25;;;;;;;;5132820;27;45340;-80
2022/03/30 01:19:03;;;;;;;;;62.50;50.25;;;;;;;;5133873;27;45263;-79
2022/03/30 01:21:28;;;;;;;;;60.50;49.00;;;;;;;;5127982;27;45302;-79
2022/03/30 01:23:54;;;;;;;;;58.75;47.50;;;;;;;;5129803;27;45605;-80
2022/03/30 01:26:19;;;;;;;;;61.25;49.00;;;;;;;;5128530;27;45513;-79
2022/03/30 01:28:44;;;;;;;;;61.00;48.00;;;;;;;;5125758;27;46283;-79
2022/03/30 01:33:54;;;;;;;;;65.00;52.00;;;;;;;;5124307;27;45431;-79
2022/03/30 01:36:19;;;;;;;;;65.00;50.25;;;;;;;;5128108;27;45449;-79
2022/03/30 01:38:44;;;;;;;;;63.25;48.75;;;;;;;;5129295;27;46113;-79
2022/03/30 01:41:10;;;;;;;;;62.50;51.00;;;;;;;;5131846;27;45293;-79
2022/03/30 01:43:35;;;;;;;;;65.75;52.25;;;;;;;;5130872;27;45323;-80
2022/03/30 01:46:01;;;;;;;;;64.25;50.50;;;;;;;;5130099;27;47178;-80
2022/03/30 01:48:26;;;;;;;;;62.25;50.50;;;;;;;;5132740;27;45422;-79
2022/03/30 01:50:51;;;;;;;;;62.75;50.50;;;;;;;;5132615;27;45219;-80
2022/03/30 01:53:17;;;;;;;;;65.75;52.75;;;;;;;;5131035;27;45399;-80
2022/03/30 01:55:42;;;;;;;;;68.25;55.00;;;;;;;;5129540;27;45423;-79
2022/03/30 01:58:07;;;;;;;;;65.25;51.50;;;;;;;;5125117;27;48325;-80
2022/03/30 02:00:33;;;;;;;;;61.75;49.75;;;;;;;;5130328;27;45534;-80
2022/03/30 02:02:58;;;;;;;;;64.00;50.75;;;;;;;;5130646;27;45266;-79
2022/03/30 02:05:23;;;;;;;;;62.00;50.75;;;;;;;;5132465;27;45811;-80
2022/03/30 02:07:49;;;;;;;;;61.00;50.00;;;;;;;;5138073;27;45568;-79
2022/03/30 02:10:14;;;;;;;;;61.25;50.00;;;;;;;;5136872;27;45259;-79
2022/03/30 02:12:40;;;;;;;;;64.00;51.00;;;;;;;;5140155;27;45318;-79
2022/03/30 02:15:05;;;;;;;;;61.50;50.00;;;;;;;;5133284;27;45605;-80
2022/03/30 02:17:31;;;;;;;;;61.25;49.25;;;;;;;;5117735;27;48024;-79
2022/03/30 02:19:57;;;;;;;;;57.75;47.00;;;;;;;;5116461;27;46124;-80
2022/03/30 02:22:22;;;;;;;;;62.25;48.75;;;;;;;;5113366;27;45316;-79
2022/03/30 02:24:50;;;;;;;;;61.25;49.75;;;;;;;;5119487;27;45400;-80
2022/03/30 02:27:16;;;;;;;;;64.00;51.25;;;;;;;;5117335;27;47519;-80
2022/03/30 02:29:41;;;;;;;;;62.00;49.00;;;;;;;;5116554;27;45416;-80
2022/03/30 02:32:06;;;;;;;;;62.00;50.25;;;;;;;;5115755;27;45313;-80
2022/03/30 02:34:31;;;;;;;;;62.75;50.00;;;;;;;;5118751;27;45317;-79
2022/03/30 02:36:57;;;;;;;;;63.50;51.50;;;;;;;;5119122;27;45341;-80
2022/03/30 02:39:22;;;;;;;;;59.00;47.75;;;;;;;;5114734;27;45287;-80
2022/03/30 02:41:47;;;;;;;;;60.50;49.00;;;;;;;;5116731;27;45468;-79
2022/03/30 02:44:15;;;;;;;;;65.00;50.75;;;;;;;;5115973;27;45674;-80
2022/03/30 02:46:40;;;;;;;;;63.00;51.25;;;;;;;;5115486;27;48183;-80
2022/03/30 02:49:06;;;;;;;;;59.50;48.25;;;;;;;;5116246;27;45437;-80
2022/03/30 02:51:31;;;;;;;;;60.00;48.00;;;;;;;;5113022;27;45317;-79
2022/03/30 02:53:56;;;;;;;;;63.00;50.75;;;;;;;;5115591;27;45318;-80
2022/03/30 02:56:22;;;;;;;;;61.50;50.25;;;;;;;;5117457;27;45368;-80
2022/03/30 02:58:47;;;;;;;;;61.00;48.75;;;;;;;;5116889;27;45363;-80
2022/03/30 03:01:12;;;;;;;;;61.50;50.25;;;;;;;;5116073;27;45376;-80
2022/03/30 03:03:38;;;;;;;;;62.25;50.00;;;;;;;;5114268;27;45275;-80
2022/03/30 03:06:03;;;;;;;;;62.75;51.25;;;;;;;;5113985;27;45454;-80
2022/03/30 03:08:28;;;;;;;;;67.00;52.00;;;;;;;;5115028;27;45365;-79
2022/03/30 03:10:54;;;;;;;;;63.00;49.00;;;;;;;;5115797;27;45687;-80
2022/03/30 03:13:19;;;;;;;;;62.00;49.00;;;;;;;;5115664;27;46004;-80
2022/03/30 03:15:46;;;;;;;;;63.00;49.50;;;;;;;;5125733;27;45423;-79
2022/03/30 03:18:12;;;;;;;;;63.50;50.75;;;;;;;;5138543;27;45419;-79
2022/03/30 03:20:40;;;;;;;;;63.25;51.25;;;;;;;;5135289;27;45266;-79
2022/03/30 03:23:06;;;;;;;;;59.75;49.00;;;;;;;;5133805;27;46231;-80
2022/03/30 03:25:35;;;;;;;;;63.50;51.00;;;;;;;;5136080;27;45262;-80
2022/03/30 03:28:01;;;;;;;;;62.75;50.50;;;;;;;;5134163;27;45365;-80
2022/03/30 03:30:26;;;;;;;;;64.50;51.25;;;;;;;;5136021;27;45330;-79
2022/03/30 03:32:51;;;;;;;;;58.75;47.50;;;;;;;;5134382;27;45554;-79
2022/03/30 03:35:17;;;;;;;;;67.75;52.75;;;;;;;;5134277;27;47449;-80
2022/03/30 03:37:42;;;;;;;;;66.00;52.50;;;;;;;;5136421;27;45176;-79
2022/03/30 03:40:11;;;;;;;;;66.25;53.25;;;;;;;;5139149;27;45188;-79
2022/03/30 03:42:37;;;;;;;;;62.50;50.50;;;;;;;;5136803;27;45531;-79
2022/03/30 03:45:03;;;;;;;;;63.50;49.25;;;;;;;;5131598;27;47109;-79
2022/03/30 03:47:28;;;;;;;;;63.25;51.00;;;;;;;;5131319;27;45380;-80
2022/03/30 03:49:54;;;;;;;;;57.00;46.75;;;;;;;;5132963;27;45364;-79
2022/03/30 03:52:19;;;;;;;;;61.25;49.50;;;;;;;;5128937;27;45311;-79
2022/03/30 03:54:44;;;;;;;;;65.25;52.25;;;;;;;;5126978;27;47028;-80
2022/03/30 03:57:09;;;;;;;;;66.00;53.75;;;;;;;;5134687;27;45427;-80
2022/03/30 03:59:35;;;;;;;;;65.50;52.00;;;;;;;;5135912;27;45281;-79
2022/03/30 04:02:00;;;;;;;;;66.00;52.50;;;;;;;;5135846;27;45489;-80
2022/03/30 04:04:25;;;;;;;;;64.50;51.50;;;;;;;;5137019;27;45299;-81
2022/03/30 04:06:51;;;;;;;;;68.50;53.75;;;;;;;;5135909;27;45371;-80
2022/03/30 04:09:16;;;;;;;;;67.25;54.25;;;;;;;;5136319;27;45416;-79
2022/03/30 04:11:41;;;;;;;;;65.50;52.75;;;;;;;;5137414;27;45526;-79
2022/03/30 04:14:07;;;;;;;;;65.00;51.75;;;;;;;;5136732;27;47463;-80
2022/03/30 04:16:33;;;;;;;;;64.75;52.25;;;;;;;;5119845;27;44657;-80
2022/03/30 04:18:58;;;;;;;;;66.75;54.00;;;;;;;;5111570;27;45312;-81
2022/03/30 04:21:23;;;;;;;;;68.00;54.25;;;;;;;;5112862;27;45325;-82
2022/03/30 04:23:48;;;;;;;;;67.00;53.00;;;;;;;;5114971;27;45280;-80
2022/03/30 04:26:14;;;;;;;;;65.25;52.75;;;;;;;;5118016;27;45218;-80
2022/03/30 04:28:40;;;;;;;;;68.00;52.25;;;;;;;;5118987;27;45280;-82
2022/03/30 04:31:09;;;;;;;;;69.25;54.75;;;;;;;;5112493;27;45219;-81
2022/03/30 04:33:35;;;;;;;;;69.75;58.25;;;;;;;;5098672;27;45560;-80
2022/03/30 04:36:01;;;;;;;;;67.75;53.50;;;;;;;;5099885;27;45397;-80
2022/03/30 04:38:26;;;;;;;;;66.50;52.75;;;;;;;;5100775;27;45292;-80
2022/03/30 04:40:51;;;;;;;;;67.75;56.00;;;;;;;;5098887;28;45433;-79
2022/03/30 04:43:16;;;;;;;;;65.25;51.25;;;;;;;;5095106;28;47314;-80
2022/03/30 04:45:41;;;;;;;;;67.25;54.75;;;;;;;;5096972;27;45300;-81
2022/03/30 04:48:07;;;;;;;;;67.25;52.75;;;;;;;;5097257;28;45226;-80
2022/03/30 04:50:32;;;;;;;;;67.50;53.75;;;;;;;;5094067;28;47303;-80
2022/03/30 04:52:57;;;;;;;;;67.75;55.00;;;;;;;;5094249;28;46949;-80
2022/03/30 04:55:23;;;;;;;;;71.75;57.75;;;;;;;;5096723;27;45238;-81
2022/03/30 04:57:48;;;;;;;;;67.00;52.00;;;;;;;;5099777;27;45297;-80
2022/03/30 05:00:13;;;;;;;;;65.50;53.00;;;;;;;;5089627;27;45191;-79
2022/03/30 05:02:40;;;;;;;;;69.50;57.00;;;;;;;;5090345;28;47158;-79
2022/03/30 05:05:06;;;;;;;;;65.25;52.25;;;;;;;;5097026;27;45321;-79
2022/03/30 05:07:31;;;;;;;;;68.50;56.50;;;;;;;;5097004;27;45370;-81
2022/03/30 05:09:57;;;;;;;;;65.75;52.00;;;;;;;;5112227;27;45543;-80
2022/03/30 05:12:23;;;;;;;;;68.25;56.25;;;;;;;;5103987;27;47351;-83
2022/03/30 05:14:49;;;;;;;;;68.00;53.75;;;;;;;;5107787;27;45363;-79
2022/03/30 05:17:14;;;;;;;;;67.50;53.00;;;;;;;;5099081;27;45549;-81
2022/03/30 05:19:40;;;;;;;;;69.50;58.75;;;;;;;;5108210;27;45588;-81
2022/03/30 05:22:05;;;;;;;;;68.75;57.50;;;;;;;;5094719;27;46304;-84
2022/03/30 05:24:31;;;;;;;;;74.25;64.50;;;;;;;;5085532;28;45297;-84
2022/03/30 05:26:56;;;;;;;;;72.00;59.75;;;;;;;;5086726;27;45630;-84
2022/03/30 05:29:21;;;;;;;;;72.00;60.00;;;;;;;;5083821;28;45434;-82
2022/03/30 05:31:46;;;;;;;;;69.25;58.50;;;;;;;;5083526;27;45690;-85
2022/03/30 05:34:12;;;;;;;;;71.25;59.50;;;;;;;;5081697;28;45334;-83
2022/03/30 05:36:37;;;;;;;;;69.25;58.25;;;;;;;;5084249;27;45481;-84
2022/03/30 05:39:02;;;;;;;;;68.00;55.00;;;;;;;;5086344;27;45321;-83
2022/03/30 05:41:28;;;;;;;;;72.25;61.00;;;;;;;;5086504;27;46286;-84
2022/03/30 05:43:53;;;;;;;;;68.75;55.75;;;;;;;;5085608;27;45188;-81
2022/03/30 05:46:18;;;;;;;;;67.25;55.50;;;;;;;;5085615;27;45440;-82
2022/03/30 05:48:43;;;;;;;;;70.25;57.50;;;;;;;;5083304;27;47457;-81
2022/03/30 05:51:09;;;;;;;;;70.25;58.50;;;;;;;;5077685;27;46300;-80
2022/03/30 05:53:34;;;;;;;;;67.50;53.50;;;;;;;;5096434;27;45318;-79
2022/03/30 05:55:59;;;;;;;;;68.50;55.00;;;;;;;;5101895;27;45863;-78
2022/03/30 05:58:25;;;;;;;;;68.50;56.00;;;;;;;;5099502;27;47227;-78
2022/03/30 06:00:50;;;;;;;;;73.00;61.50;;;;;;;;5100776;27;45689;-79
2022/03/30 06:03:16;;;;;;;;;71.25;59.00;;;;;;;;5101116;27;45279;-79
2022/03/30 06:05:42;;;;;;;;;68.25;55.50;;;;;;;;5101931;27;45581;-80
2022/03/30 06:08:07;;;;;;;;;74.00;64.50;;;;;;;;5100112;27;45602;-80
2022/03/30 06:10:32;;;;;;;;;76.00;63.25;;;;;;;;5104916;27;46187;-80
2022/03/30 06:12:58;;;;;;;;;73.25;60.25;;;;;;;;5110244;27;45390;-80
2022/03/30 06:15:23;;;;;;;;;72.00;60.75;;;;;;;;5114144;27;45560;-81
2022/03/30 06:17:49;;;;;;;;;70.50;59.50;;;;;;;;5099848;27;46116;-80
2022/03/30 06:20:15;;;;;;;;;66.75;52.50;;;;;;;;5115164;27;47601;-79
2022/03/30 06:22:41;;;;;;;;;74.00;64.50;;;;;;;;5098632;27;45299;-80
2022/03/30 06:25:07;;;;;;;;;75.75;63.50;;;;;;;;5099524;27;44767;-80
2022/03/30 06:27:32;;;;;;;;;75.50;66.75;;;;;;;;5088888;27;45743;-81
2022/03/30 06:29:58;;;;;;;;;75.50;67.50;;;;;;;;5098148;27;47593;-79
2022/03/30 06:32:23;;;;;;;;;67.00;55.00;;;;;;;;5103690;27;45365;-79
2022/03/30 06:34:48;;;;;;;;;76.50;66.25;;;;;;;;5103061;27;45379;-79
2022/03/30 06:37:13;;;;;;;;;75.00;66.50;;;;;;;;5109253;27;45295;-81
2022/03/30 06:39:39;;;;;;;;;74.50;66.75;;;;;;;;5117397;27;45231;-81
2022/03/30 06:42:05;;;;;;;;;74.75;67.00;;;;;;;;5114035;27;45263;-81
2022/03/30 06:44:31;;;;;;;;;78.00;74.00;;;;;;;;5112330;27;45303;-77
2022/03/30 06:46:57;;;;;;;;;75.75;68.25;;;;;;;;5100211;27;45358;-79
2022/03/30 06:49:22;;;;;;;;;74.50;65.25;;;;;;;;5098557;27;46705;-79
2022/03/30 06:51:47;;;;;;;;;76.25;72.00;;;;;;;;5102112;27;45360;-78
2022/03/30 06:54:13;;;;;;;;;77.75;68.25;;;;;;;;5102805;27;45307;-79
2022/03/30 06:56:38;;;;;;;;;72.75;63.75;;;;;;;;5101188;27;46140;-79
2022/03/30 06:59:03;;;;;;;;;74.00;65.75;;;;;;;;5102442;27;45321;-79
2022/03/30 07:01:28;;;;;;;;;74.00;64.00;;;;;;;;5102333;27;45319;-79
2022/03/30 07:03:54;;;;;;;;;76.25;68.25;;;;;;;;5102439;27;45362;-78
2022/03/30 07:06:19;;;;;;;;;76.00;65.75;;;;;;;;5102392;27;45380;-79
2022/03/30 07:11:28;;;;;;;;;75.75;66.75;;;;;;;;5102179;27;45364;-79
2022/03/30 07:13:56;;;;;;;;;75.00;66.50;;;;;;;;5102259;27;45369;-78
2022/03/30 07:16:22;;;;;;;;;77.75;71.00;;;;;;;;5105917;27;47417;-79
2022/03/30 07:18:47;;;;;;;;;80.25;73.75;;;;;;;;5102307;27;45616;-80
2022/03/30 07:21:12;;;;;;;;;77.00;70.25;;;;;;;;5102195;27;45306;-79
2022/03/30 07:23:38;;;;;;;;;75.25;68.00;;;;;;;;5100825;27;45331;-79
2022/03/30 07:26:04;;;;;;;;;77.00;70.50;;;;;;;;5102204;27;45548;-79
2022/03/30 07:28:30;;;;;;;;;74.50;67.50;;;;;;;;5100409;27;47108;-79
2022/03/30 07:30:55;;;;;;;;;76.75;66.25;;;;;;;;5101861;27;45413;-79
2022/03/30 07:33:23;;;;;;;;;73.75;63.25;;;;;;;;5102203;27;45425;-80
2022/03/30 07:35:48;;;;;;;;;75.75;67.75;;;;;;;;5100515;27;46125;-80
2022/03/30 07:38:15;;;;;;;;;75.00;65.75;;;;;;;;5101929;27;46522;-80
2022/03/30 07:40:40;;;;;;;;;73.75;64.75;;;;;;;;5100571;27;45388;-79
2022/03/30 07:43:06;;;;;;;;;72.50;62.75;;;;;;;;5101663;27;45312;-79
2022/03/30 07:45:33;;;;;;;;;76.50;69.50;;;;;;;;5100472;27;47205;-78
2022/03/30 07:47:58;;;;;;;;;74.25;67.75;;;;;;;;5099995;27;47201;-80
2022/03/30 07:50:23;;;;;;;;;70.50;60.00;;;;;;;;5101929;27;45343;-80
2022/03/30 07:52:50;;;;;;;;;71.25;61.00;;;;;;;;5101851;27;45288;-79
2022/03/30 07:55:15;;;;;;;;;75.25;66.00;;;;;;;;5101639;27;45452;-80
2022/03/30 07:57:42;;;;;;;;;72.00;61.25;;;;;;;;5101241;27;45299;-81
2022/03/30 08:00:08;;;;;;;;;70.00;60.00;;;;;;;;5100310;27;45599;-80
2022/03/30 08:02:34;;;;;;;;;72.25;63.25;;;;;;;;5101358;27;45336;-80
2022/03/30 08:04:59;;;;;;;;;74.00;65.75;;;;;;;;5101522;27;45479;-80
2022/03/30 08:07:26;;;;;;;;;76.00;68.50;;;;;;;;5099776;27;48004;-80
2022/03/30 08:09:51;;;;;;;;;74.75;66.00;;;;;;;;5101564;27;45292;-80
2022/03/30 08:12:17;;;;;;;;;73.50;62.00;;;;;;;;5101651;27;45317;-80
2022/03/30 08:14:43;;;;;;;;;78.75;73.50;;;;;;;;5102303;27;45309;-80
2022/03/30 08:17:08;;;;;;;;;85.75;74.50;;;;;;;;5120425;27;47252;-80
2022/03/30 08:19:34;;;;;;;;;76.75;69.50;;;;;;;;5120559;27;45286;-80
2022/03/30 08:24:46;;;;;;;;;72.25;60.00;;;;;;;;5121688;27;45307;-81
2022/03/30 08:27:18;;;;;;;;;71.75;61.50;;;;;;;;5121742;27;46158;-80
2022/03/30 08:29:44;;;;;;;;;85.50;78.00;;;;;;;;5119703;27;45943;-80
2022/03/30 08:32:11;;;;;;;;;74.50;64.00;;;;;;;;5121910;27;45538;-80
2022/03/30 08:34:36;;;;;;;;;73.25;64.50;;;;;;;;5115285;27;46774;-76
2022/03/30 08:37:01;;;;;;;;;75.00;68.50;;;;;;;;5088018;27;46499;-77
2022/03/30 08:39:26;;;;;;;;;73.50;63.75;;;;;;;;5101844;27;45273;-78
2022/03/30 08:41:52;;;;;;;;;71.00;60.50;;;;;;;;5088580;27;46098;-79
2022/03/30 08:44:17;;;;;;;;;84.75;80.00;;;;;;;;5080146;28;45643;-78
2022/03/30 08:46:46;;;;;;;;;158.67;143.00;;;;;;;;5080235;28;45740;-78
2022/03/30 08:49:12;;;;;;;;;87.25;81.25;;;;;;;;5080460;27;45291;-78
2022/03/30 08:51:38;;;;;;;;;70.50;62.50;;;;;;;;5087570;27;45180;-79
2022/03/30 08:54:03;;;;;;;;;72.00;63.00;;;;;;;;5079772;27;46213;-77
2022/03/30 08:56:30;;;;;;;;;71.50;61.75;;;;;;;;5081325;27;45365;-80
2022/03/30 08:59:06;;;;;;;;;72.75;62.75;;;;;;;;5090185;27;45334;-83
2022/03/30 09:01:32;;;;;;;;;72.50;64.25;;;;;;;;5079084;27;45276;-79
2022/03/30 09:03:58;;;;;;;;;72.50;63.50;;;;;;;;5082276;27;45345;-78
2022/03/30 09:06:30;;;;;;;;;74.00;60.00;;;;;;;;5087159;28;47353;-77
2022/03/30 09:08:58;;;;;;;;;74.75;65.75;;;;;;;;5085614;27;45307;-76
2022/03/30 09:11:25;;;;;;;;;70.75;60.00;;;;;;;;5081784;28;45341;-76
2022/03/30 09:14:03;;;;;;;;;71.75;63.00;;;;;;;;5077620;28;46132;-78
2022/03/30 09:16:46;;;;;;;;;70.75;59.75;;;;;;;;5114621;27;46277;-78
2022/03/30 09:19:12;;;;;;;;;73.00;65.00;;;;;;;;5121866;27;45441;-78
2022/03/30 09:21:42;;;;;;;;;74.75;67.00;;;;;;;;5079455;27;45431;-78
2022/03/30 09:24:07;;;;;;;;;73.50;63.25;;;;;;;;5092599;27;45507;-77
2022/03/30 09:26:33;;;;;;;;;70.50;59.25;;;;;;;;5086547;27;47069;-77
2022/03/30 09:28:58;;;;;;;;;73.00;64.75;;;;;;;;5097841;27;45337;-78
2022/03/30 09:31:25;;;;;;;;;75.50;69.00;;;;;;;;5099245;27;45357;-79
2022/03/30 09:33:53;;;;;;;;;71.75;59.25;;;;;;;;5079394;27;46194;-78
2022/03/30 09:36:32;;;;;;;;;73.50;63.50;;;;;;;;5086311;27;45480;-79
2022/03/30 09:38:57;;;;;;;;;74.25;65.75;;;;;;;;5106732;27;45345;-79
2022/03/30 09:41:23;;;;;;;;;71.75;63.00;;;;;;;;5087973;27;45419;-79
2022/03/30 09:43:48;;;;;;;;;72.75;61.50;;;;;;;;5086575;27;45440;-78
2022/03/30 09:46:15;;;;;;;;;73.75;65.25;;;;;;;;5077876;28;47193;-80
2022/03/30 09:48:49;;;;;;;;;74.25;67.00;;;;;;;;5079540;27;45381;-80
2022/03/30 09:51:15;;;;;;;;;74.00;66.75;;;;;;;;5078469;28;45360;-79
2022/03/30 09:53:42;;;;;;;;;75.00;69.50;;;;;;;;5079259;27;45433;-80
2022/03/30 09:56:08;;;;;;;;;74.75;65.50;;;;;;;;5079396;27;45294;-80
2022/03/30 09:58:34;;;;;;;;;74.75;66.00;;;;;;;;5078562;27;45566;-80
2022/03/30 10:01:10;;;;;;;;;73.50;66.50;;;;;;;;5083097;27;45322;-81
2022/03/30 10:03:42;;;;;;;;;76.25;67.25;;;;;;;;5078103;28;46509;-81
2022/03/30 10:06:09;;;;;;;;;75.75;67.75;;;;;;;;5097412;27;45704;-80
2022/03/30 10:08:34;;;;;;;;;74.75;67.75;;;;;;;;5098212;27;45340;-80
2022/03/30 10:10:59;;;;;;;;;74.00;65.25;;;;;;;;5099554;27;45368;-79
2022/03/30 10:13:25;;;;;;;;;79.50;73.25;;;;;;;;5082745;27;45444;-79
2022/03/30 10:15:50;;;;;;;;;79.75;73.00;;;;;;;;5103424;27;45297;-79
2022/03/30 10:18:15;;;;;;;;;74.75;64.50;;;;;;;;5120855;27;45270;-85
2022/03/30 10:20:41;;;;;;;;;75.25;69.25;;;;;;;;5120338;27;45246;-80
2022/03/30 10:23:22;;;;;;;;;78.50;72.75;;;;;;;;5119721;27;45305;-77
2022/03/30 10:25:55;;;;;;;;;86.50;81.50;;;;;;;;5121885;27;47393;-79
2022/03/30 10:28:23;;;;;;;;;81.25;73.50;;;;;;;;5089407;27;45522;-77
2022/03/30 10:30:56;;;;;;;;;69.25;58.50;;;;;;;;5080992;28;45337;-77
2022/03/30 10:33:32;;;;;;;;;73.50;66.50;;;;;;;;5082707;27;45464;-79
2022/03/30 10:35:59;;;;;;;;;70.00;59.50;;;;;;;;5080895;27;48386;-77
2022/03/30 10:38:24;;;;;;;;;69.00;57.50;;;;;;;;5100065;27;45326;-77
2022/03/30 10:41:05;;;;;;;;;72.25;61.75;;;;;;;;5102825;27;45246;-78
2022/03/30 10:43:30;;;;;;;;;69.25;61.25;;;;;;;;5102402;27;45328;-78
2022/03/30 10:45:57;;;;;;;;;73.75;64.50;;;;;;;;5099370;27;46880;-79
2022/03/30 10:48:23;;;;;;;;;68.50;59.25;;;;;;;;5098152;27;46113;-79
2022/03/30 10:50:49;;;;;;;;;73.50;62.00;;;;;;;;5102856;27;45265;-79
2022/03/30 10:53:29;;;;;;;;;71.75;62.75;;;;;;;;5101163;27;46771;-79
2022/03/30 10:55:55;;;;;;;;;74.75;64.50;;;;;;;;5102584;27;45322;-79
2022/03/30 10:58:20;;;;;;;;;73.50;64.50;;;;;;;;5100855;27;45365;-78
2022/03/30 11:00:45;;;;;;;;;69.75;58.00;;;;;;;;5102477;27;45862;-79
2022/03/30 11:03:16;;;;;;;;;71.25;61.50;;;;;;;;5100985;27;46283;-79
2022/03/30 11:06:01;;;;;;;;;70.75;59.25;;;;;;;;5102242;27;45285;-79
2022/03/30 11:08:32;;;;;;;;;70.00;61.25;;;;;;;;5102294;27;45312;-79
2022/03/30 11:11:00;;;;;;;;;71.50;61.50;;;;;;;;5093280;27;45381;-79
2022/03/30 11:13:25;;;;;;;;;70.00;62.25;;;;;;;;5080326;28;47199;-80
2022/03/30 11:15:56;;;;;;;;;72.00;61.75;;;;;;;;5103640;27;45361;-79
2022/03/30 11:18:22;;;;;;;;;72.00;60.50;;;;;;;;5123081;27;45289;-79
2022/03/30 11:21:05;;;;;;;;;72.00;63.00;;;;;;;;5123185;27;45261;-79
2022/03/30 11:23:31;;;;;;;;;72.00;62.00;;;;;;;;5122469;27;45648;-79
2022/03/30 11:25:56;;;;;;;;;71.00;57.75;;;;;;;;5122668;27;46493;-79
2022/03/30 11:28:33;;;;;;;;;73.75;67.25;;;;;;;;5121344;27;45996;-79
2022/03/30 11:31:01;;;;;;;;;72.00;63.00;;;;;;;;5121013;27;45288;-79
2022/03/30 11:33:27;;;;;;;;;70.75;61.75;;;;;;;;5121470;27;46993;-79
2022/03/30 11:35:52;;;;;;;;;71.00;64.50;;;;;;;;5103329;27;45458;-79
2022/03/30 11:38:23;;;;;;;;;73.25;61.50;;;;;;;;5099130;27;45322;-80
2022/03/30 11:40:50;;;;;;;;;73.00;64.25;;;;;;;;5082742;27;45411;-80
2022/03/30 11:43:19;;;;;;;;;73.25;67.50;;;;;;;;5083136;27;45398;-78
2022/03/30 11:45:44;;;;;;;;;70.50;62.25;;;;;;;;5080633;28;47143;-81
2022/03/30 11:48:10;;;;;;;;;69.00;63.00;;;;;;;;5081999;27;45263;-81
2022/03/30 11:50:37;;;;;;;;;70.75;60.25;;;;;;;;5083622;27;45385;-79
2022/03/30 11:53:13;;;;;;;;;69.50;58.25;;;;;;;;5092246;27;46085;-80
2022/03/30 11:55:50;;;;;;;;;69.75;59.75;;;;;;;;5091028;28;47986;-81
2022/03/30 11:58:24;;;;;;;;;68.75;58.00;;;;;;;;5095992;28;45239;-81
2022/03/30 12:00:52;;;;;;;;;70.25;63.75;;;;;;;;5094720;28;45354;-81
2022/03/30 12:03:17;;;;;;;;;66.75;55.75;;;;;;;;5090442;27;45382;-81
2022/03/30 12:05:43;;;;;;;;;68.00;58.00;;;;;;;;5088429;28;46010;-76
2022/03/30 12:08:08;;;;;;;;;68.25;56.75;;;;;;;;5086979;27;45389;-76
2022/03/30 12:10:33;;;;;;;;;67.75;59.00;;;;;;;;5087022;28;45382;-78
2022/03/30 12:12:59;;;;;;;;;60.00;47.75;;;;;;;;5083758;28;46274;-75
2022/03/30 12:15:24;;;;;;;;;63.00;49.25;;;;;;;;5100748;27;45355;-76
2022/03/30 12:17:51;;;;;;;;;67.00;56.75;;;;;;;;5123023;27;45402;-75
2022/03/30 12:20:24;;;;;;;;;66.25;54.25;;;;;;;;5125048;27;45293;-75
2022/03/30 12:23:16;;;;;;;;;65.50;54.75;;;;;;;;5122778;27;45453;-77
2022/03/30 12:25:41;;;;;;;;;63.75;51.00;;;;;;;;5124709;27;46480;-75
2022/03/30 12:28:07;;;;;;;;;66.00;51.75;;;;;;;;5124644;27;45347;-76
2022/03/30 12:30:36;;;;;;;;;61.00;48.50;;;;;;;;5122809;27;45548;-76
2022/03/30 12:33:01;;;;;;;;;61.25;48.75;;;;;;;;5084985;27;45367;-75
2022/03/30 12:35:35;;;;;;;;;66.50;54.25;;;;;;;;5082444;27;46232;-80
2022/03/30 12:38:11;;;;;;;;;36.75;31.25;;;;;;;;5078251;28;45417;-81
2022/03/30 12:40:41;;;;;;;;;61.75;51.00;;;;;;;;5079164;28;45396;-80
2022/03/30 12:43:07;;;;;;;;;64.50;53.75;;;;;;;;5080029;27;45350;-80
2022/03/30 12:45:33;;;;;;;;;64.75;53.50;;;;;;;;5078900;28;47179;-80
2022/03/30 12:48:01;;;;;;;;;69.75;59.25;;;;;;;;5077798;28;45906;-80
2022/03/30 12:50:32;;;;;;;;;68.75;58.00;;;;;;;;5079220;28;45410;-81
2022/03/30 12:53:15;;;;;;;;;134.50;126.00;;;;;;;;5078423;28;47483;-80
2022/03/30 12:55:42;;;;;;;;;74.25;65.50;;;;;;;;5080242;27;46086;-80
2022/03/30 12:58:11;;;;;;;;;70.50;59.00;;;;;;;;5080039;28;45403;-81
2022/03/30 13:00:41;;;;;;;;;66.75;55.50;;;;;;;;5080073;28;45357;-80
2022/03/30 13:03:07;;;;;;;;;67.00;52.25;;;;;;;;5079880;27;45311;-80
2022/03/30 13:05:32;;;;;;;;;62.50;49.75;;;;;;;;5078546;28;46703;-80
2022/03/30 13:07:57;;;;;;;;;65.00;53.25;;;;;;;;5079265;28;45464;-77
2022/03/30 13:10:23;;;;;;;;;60.00;48.00;;;;;;;;5080254;27;45571;-78
2022/03/30 13:12:53;;;;;;;;;63.00;49.75;;;;;;;;5093860;27;46916;-78
2022/03/30 13:15:19;;;;;;;;;56.75;46.75;;;;;;;;5106875;27;45337;-79
2022/03/30 13:17:54;;;;;;;;;62.25;50.75;;;;;;;;5120890;27;45223;-79
2022/03/30 13:20:19;;;;;;;;;60.75;49.50;;;;;;;;5121212;27;45329;-78
2022/03/30 13:22:51;;;;;;;;;58.50;46.75;;;;;;;;5103913;27;45557;-79
2022/03/30 13:25:27;;;;;;;;;76.25;72.50;;;;;;;;5080029;27;45987;-79
2022/03/30 13:27:52;;;;;;;;;62.75;50.25;;;;;;;;5082875;27;45338;-78
2022/03/30 13:30:18;;;;;;;;;64.25;51.75;;;;;;;;5080383;27;45193;-78
2022/03/30 13:32:43;;;;;;;;;61.50;48.75;;;;;;;;5080649;27;45676;-77
2022/03/30 13:35:08;;;;;;;;;71.00;59.00;;;;;;;;5079073;27;45361;-78
2022/03/30 13:37:35;;;;;;;;;67.75;56.00;;;;;;;;5078999;27;45283;-78
2022/03/30 13:40:00;;;;;;;;;67.75;54.00;;;;;;;;5096884;27;45204;-79
2022/03/30 13:42:25;;;;;;;;;67.00;56.75;;;;;;;;5095960;27;45364;-79
2022/03/30 13:44:51;;;;;;;;;66.50;52.25;;;;;;;;5095091;27;47051;-79
2022/03/30 13:47:16;;;;;;;;;65.50;53.75;;;;;;;;5090967;27;45360;-79
2022/03/30 13:49:41;;;;;;;;;65.50;50.25;;;;;;;;5094466;27;45717;-80
2022/03/30 13:52:07;;;;;;;;;69.25;56.25;;;;;;;;5080334;27;45481;-79
2022/03/30 13:54:32;;;;;;;;;67.50;56.25;;;;;;;;5079300;27;45563;-80
2022/03/30 13:56:57;;;;;;;;;63.75;49.25;;;;;;;;5080115;27;45444;-78
2022/03/30 13:59:23;;;;;;;;;69.00;58.50;;;;;;;;5082443;27;45424;-79
2022/03/30 14:01:49;;;;;;;;;65.00;52.50;;;;;;;;5084178;27;45320;-80
2022/03/30 14:04:14;;;;;;;;;63.75;50.25;;;;;;;;5095648;27;47414;-79
2022/03/30 14:06:40;;;;;;;;;61.00;49.50;;;;;;;;5082202;27;45361;-78
2022/03/30 14:09:05;;;;;;;;;64.75;52.25;;;;;;;;5082508;27;45245;-78
2022/03/30 14:11:30;;;;;;;;;64.50;51.50;;;;;;;;5085417;27;45270;-79
2022/03/30 14:13:55;;;;;;;;;67.50;57.50;;;;;;;;5084112;27;45619;-78
2022/03/30 14:16:20;;;;;;;;;65.00;52.75;;;;;;;;5093313;27;45408;-79
2022/03/30 14:18:46;;;;;;;;;68.25;56.00;;;;;;;;5083571;27;45399;-79
2022/03/30 14:21:11;;;;;;;;;72.00;57.75;;;;;;;;5081479;28;46341;-79